Time;durP1;ratioP1;P1;durP2;ratioP2;P2;SDS_P1;SDS_P2;PMS_P1;PMS_P2;Temp;Humidity;BMP_temperature;BMP_pressure;BME280_temperature;BME280_humidity;BME280_pressure;Samples;Min_cycle;Max_cycle;Signal;HPM_P1;HPM_P2
2023/09/28 00:03:45;;;;;;;5.85;5.35;;;;;;;17.70;99.75;101410.25;6077894;29;20229;-75
2023/09/28 00:07:06;;;;;;;5.28;4.88;;;;;;;17.73;99.56;101412.66;6067807;29;20232;-74
2023/09/28 00:10:31;;;;;;;5.97;4.90;;;;;;;17.73;99.35;101410.75;6081247;29;20620;-74
2023/09/28 00:13:52;;;;;;;6.25;5.55;;;;;;;17.62;99.89;101413.84;6077567;29;21105;-76
2023/09/28 00:17:13;;;;;;;5.65;5.15;;;;;;;17.70;100.00;101416.56;6080339;29;20232;-75
2023/09/28 00:20:34;;;;;;;5.50;4.75;;;;;;;17.59;100.00;101411.44;6080744;29;20552;-75
2023/09/28 00:23:55;;;;;;;5.10;4.70;;;;;;;17.66;100.00;101411.63;6079872;29;20502;-76
2023/09/28 00:27:18;;;;;;;5.60;5.10;;;;;;;17.73;100.00;101410.75;6079516;29;20229;-76
2023/09/28 00:30:39;;;;;;;6.80;5.75;;;;;;;17.68;100.00;101415.91;6081463;29;20237;-76
2023/09/28 00:34:00;;;;;;;6.43;5.20;;;;;;;17.65;100.00;101410.75;6076419;29;20320;-76
2023/09/28 00:37:21;;;;;;;5.78;5.35;;;;;;;17.58;100.00;101414.34;6067763;29;20606;-75
2023/09/28 00:40:42;;;;;;;5.55;5.05;;;;;;;17.54;100.00;101409.22;6064249;29;20297;-76
2023/09/28 00:44:06;;;;;;;5.90;5.30;;;;;;;17.62;100.00;101421.16;6066022;29;20445;-77
2023/09/28 00:47:27;;;;;;;6.20;5.65;;;;;;;17.66;100.00;101417.94;6080746;29;20314;-76
2023/09/28 00:50:49;;;;;;;5.60;5.10;;;;;;;17.58;100.00;101420.66;6081287;29;20233;-76
2023/09/28 00:54:11;;;;;;;6.70;6.10;;;;;;;17.47;100.00;101416.34;6063450;29;20232;-77
2023/09/28 00:57:33;;;;;;;5.88;5.40;;;;;;;17.50;100.00;101413.28;6080298;29;20519;-77
2023/09/28 01:00:57;;;;;;;6.68;5.80;;;;;;;17.58;100.00;101417.06;6063829;29;20240;-76
2023/09/28 01:04:18;;;;;;;7.88;5.50;;;;;;;17.40;100.00;101426.19;6080031;29;20232;-76
2023/09/28 01:07:39;;;;;;;5.95;5.35;;;;;;;17.21;100.00;101403.84;6076073;29;20543;-76
2023/09/28 01:11:02;;;;;;;6.50;5.88;;;;;;;17.35;100.00;101400.47;6083208;29;20233;-77
2023/09/28 01:14:22;;;;;;;9.43;6.63;;;;;;;17.27;100.00;101387.66;6075615;29;20312;-76
2023/09/28 01:17:45;;;;;;;6.60;5.95;;;;;;;17.29;100.00;101379.34;6083174;29;20514;-76
2023/09/28 01:21:06;;;;;;;6.25;5.65;;;;;;;17.23;100.00;101378.13;6080498;29;20252;-76
2023/09/28 01:24:29;;;;;;;7.20;6.57;;;;;;;17.18;100.00;101371.47;6077967;29;20240;-76
2023/09/28 01:27:49;;;;;;;6.35;5.75;;;;;;;17.39;100.00;101359.09;6079591;29;20853;-76
2023/09/28 01:31:11;;;;;;;7.13;6.55;;;;;;;17.39;100.00;101334.56;6078308;29;20228;-77
2023/09/28 01:34:33;;;;;;;6.25;5.78;;;;;;;17.43;100.00;101344.09;6077146;29;20243;-76
2023/09/28 01:38:00;;;;;;;7.18;6.47;;;;;;;17.33;100.00;101337.97;6080427;29;20271;-76
2023/09/28 01:41:22;;;;;;;5.85;5.35;;;;;;;17.10;100.00;101353.25;6083641;29;20228;-76
2023/09/28 01:44:43;;;;;;;6.07;5.47;;;;;;;17.15;100.00;101344.53;6078964;29;20227;-76
2023/09/28 01:48:04;;;;;;;5.88;5.38;;;;;;;17.21;100.00;101338.44;6078428;29;20260;-75
2023/09/28 01:51:25;;;;;;;5.63;5.00;;;;;;;17.35;100.00;101343.22;6066873;29;20232;-75
2023/09/28 01:54:45;;;;;;;6.22;5.70;;;;;;;17.40;100.00;101344.41;6077196;29;20240;-75
2023/09/28 01:58:08;;;;;;;5.93;5.40;;;;;;;17.35;100.00;101349.53;6075581;29;20575;-75
2023/09/28 02:01:28;;;;;;;5.72;5.13;;;;;;;17.35;100.00;101357.72;6073893;29;20236;-72
2023/09/28 02:04:49;;;;;;;7.57;5.50;;;;;;;17.27;100.00;101344.06;6061663;29;20237;-73
2023/09/28 02:08:10;;;;;;;5.93;5.38;;;;;;;17.33;100.00;101342.53;6073639;29;20576;-74
2023/09/28 02:11:31;;;;;;;5.38;4.88;;;;;;;17.41;100.00;101334.38;6081461;29;20256;-74
2023/09/28 02:14:53;;;;;;;6.30;5.63;;;;;;;17.29;100.00;101336.56;6059679;29;20252;-74
2023/09/28 02:18:14;;;;;;;5.72;5.13;;;;;;;17.41;100.00;101345.28;6063611;29;20232;-74
2023/09/28 02:21:35;;;;;;;9.73;5.88;;;;;;;17.23;100.00;101369.94;6064699;29;20244;-74
2023/09/28 02:24:57;;;;;;;6.55;5.85;;;;;;;17.21;100.00;101374.69;6077958;29;20655;-73
2023/09/28 02:28:17;;;;;;;6.72;6.10;;;;;;;17.17;100.00;101384.22;6079720;29;20257;-71
2023/09/28 02:31:42;;;;;;;7.07;6.47;;;;;;;17.19;100.00;101371.28;6077178;29;20229;-72
2023/09/28 02:35:04;;;;;;;11.10;7.07;;;;;;;17.13;100.00;101363.78;6068056;29;20232;-72
2023/09/28 02:38:27;;;;;;;6.78;6.05;;;;;;;17.17;100.00;101362.44;6084012;29;20240;-72
2023/09/28 02:41:48;;;;;;;6.55;5.95;;;;;;;17.11;100.00;101346.75;6069312;29;20264;-73
2023/09/28 02:45:11;;;;;;;6.60;5.70;;;;;;;17.21;100.00;101349.34;6057790;29;20577;-72
2023/09/28 02:48:33;;;;;;;6.65;5.95;;;;;;;16.94;100.00;101360.50;6072240;29;20240;-73
2023/09/28 02:51:54;;;;;;;7.75;6.05;;;;;;;16.96;100.00;101361.19;6081743;29;20224;-73
2023/09/28 02:55:17;;;;;;;6.88;6.15;;;;;;;16.78;100.00;101353.97;6068967;29;20311;-73
2023/09/28 02:58:38;;;;;;;7.20;6.50;;;;;;;16.81;100.00;101357.41;6083564;29;20232;-72
2023/09/28 03:01:58;;;;;;;9.18;6.95;;;;;;;16.68;100.00;101345.09;6082148;29;20621;-73
2023/09/28 03:05:21;;;;;;;7.77;6.97;;;;;;;16.64;100.00;101343.72;6070854;29;20260;-73
2023/09/28 03:08:42;;;;;;;7.10;6.50;;;;;;;16.69;100.00;101345.94;6066064;29;20233;-73
2023/09/28 03:12:07;;;;;;;8.70;7.72;;;;;;;16.58;100.00;101347.06;6080347;29;20237;-73
2023/09/28 03:15:28;;;;;;;8.63;7.72;;;;;;;16.57;100.00;101336.34;6084153;29;20233;-73
2023/09/28 03:18:48;;;;;;;7.47;6.77;;;;;;;16.68;100.00;101342.38;6079430;29;20560;-73
2023/09/28 03:22:10;;;;;;;8.07;6.68;;;;;;;16.55;100.00;101344.69;6080224;29;20244;-73
2023/09/28 03:25:30;;;;;;;8.13;7.32;;;;;;;16.76;100.00;101357.88;6079020;29;20354;-72
2023/09/28 03:28:52;;;;;;;9.20;7.38;;;;;;;16.91;100.00;101342.63;6078354;29;20236;-73
2023/09/28 03:32:13;;;;;;;8.95;7.60;;;;;;;16.91;100.00;101339.03;6080812;29;20260;-72
2023/09/28 03:35:34;;;;;;;8.75;7.38;;;;;;;16.77;100.00;101330.47;6080058;29;20241;-73
2023/09/28 03:38:56;;;;;;;7.15;6.60;;;;;;;16.79;100.00;101325.72;6075909;29;20765;-73
2023/09/28 03:42:17;;;;;;;7.82;7.03;;;;;;;16.79;100.00;101312.09;6081966;29;20228;-73
2023/09/28 03:45:39;;;;;;;8.75;7.07;;;;;;;16.88;100.00;101312.97;6080645;29;20240;-73
2023/09/28 03:49:00;;;;;;;8.32;7.53;;;;;;;16.70;100.00;101317.69;6080243;29;20244;-73
2023/09/28 03:52:20;;;;;;;11.95;7.63;;;;;;;16.64;100.00;101318.38;6079367;29;20232;-73
2023/09/28 03:55:43;;;;;;;8.40;7.20;;;;;;;16.74;100.00;101328.09;6081475;29;20240;-73
2023/09/28 03:59:03;;;;;;;7.85;7.05;;;;;;;16.68;100.00;101336.06;6082460;29;20236;-73
2023/09/28 04:02:27;;;;;;;8.23;7.15;;;;;;;16.52;100.00;101336.84;6081913;29;20240;-73
2023/09/28 04:05:48;;;;;;;8.45;7.13;;;;;;;16.41;100.00;101333.53;6082644;29;21983;-73
2023/09/28 04:09:10;;;;;;;9.25;7.47;;;;;;;16.27;100.00;101339.59;6078912;29;20244;-73
2023/09/28 04:12:32;;;;;;;8.38;7.53;;;;;;;16.40;100.00;101315.47;6081008;29;20348;-73
2023/09/28 04:15:53;;;;;;;8.48;7.72;;;;;;;16.37;100.00;101313.97;6080499;29;20236;-73
2023/09/28 04:19:15;;;;;;;13.93;9.18;;;;;;;16.43;100.00;101323.34;6072719;29;20277;-73
2023/09/28 04:22:36;;;;;;;8.80;7.82;;;;;;;16.57;100.00;101318.16;6084752;29;20241;-74
2023/09/28 04:25:56;;;;;;;10.25;8.05;;;;;;;16.46;100.00;101326.56;6079747;29;20324;-74
2023/09/28 04:29:20;;;;;;;8.38;7.43;;;;;;;16.55;100.00;101325.63;6081456;29;20229;-74
2023/09/28 04:32:42;;;;;;;9.60;7.32;;;;;;;16.45;100.00;101326.75;6077347;29;23440;-74
2023/09/28 04:36:03;;;;;;;9.02;7.93;;;;;;;16.20;100.00;101342.09;6081228;29;20253;-74
2023/09/28 04:39:26;;;;;;;9.75;8.82;;;;;;;16.32;100.00;101348.09;6080090;29;20602;-75
2023/09/28 04:42:47;;;;;;;8.68;7.60;;;;;;;16.32;100.00;101351.69;6080245;29;20252;-75
2023/09/28 04:46:09;;;;;;;10.02;8.40;;;;;;;16.31;100.00;101343.69;6082926;29;20328;-75
2023/09/28 04:49:30;;;;;;;10.27;9.27;;;;;;;16.31;100.00;101346.41;6083544;29;20260;-75
2023/09/28 04:52:51;;;;;;;8.95;8.13;;;;;;;16.34;100.00;101348.78;6083701;29;20240;-74
2023/09/28 04:56:13;;;;;;;8.10;7.30;;;;;;;16.46;100.00;101352.94;6081549;29;20229;-74
2023/09/28 04:59:35;;;;;;;8.70;7.90;;;;;;;16.52;100.00;101353.19;6079995;29;20302;-75
2023/09/28 05:03:01;;;;;;;8.63;7.83;;;;;;;16.51;100.00;101345.19;6078967;29;20240;-74
2023/09/28 05:06:22;;;;;;;6.90;6.20;;;;;;;16.66;100.00;101346.28;6076738;29;20276;-73
2023/09/28 05:09:44;;;;;;;8.13;7.30;;;;;;;16.82;100.00;101349.06;6080251;29;20260;-74
2023/09/28 05:13:05;;;;;;;12.57;9.23;;;;;;;16.73;100.00;101339.13;6076901;29;20499;-74
2023/09/28 05:16:26;;;;;;;11.90;8.30;;;;;;;16.61;100.00;101354.06;6080323;29;20244;-75
2023/09/28 05:19:48;;;;;;;8.35;7.43;;;;;;;16.68;100.00;101349.69;6079651;29;20237;-74
2023/09/28 05:23:10;;;;;;;9.95;7.90;;;;;;;16.54;100.00;101362.03;6078422;29;22894;-74
2023/09/28 05:26:31;;;;;;;18.35;9.30;;;;;;;16.65;100.00;101360.88;6082506;29;20245;-74
2023/09/28 05:29:55;;;;;;;11.23;8.38;;;;;;;16.64;100.00;101372.81;6078323;29;20585;-73
2023/09/28 05:33:16;;;;;;;7.88;7.07;;;;;;;16.61;100.00;101382.16;6079600;29;20229;-75
2023/09/28 05:36:38;;;;;;;12.23;8.23;;;;;;;16.72;100.00;101375.56;6079423;29;20855;-74
2023/09/28 05:40:00;;;;;;;9.47;8.47;;;;;;;16.80;100.00;101375.59;6077233;29;20236;-73
2023/09/28 05:43:21;;;;;;;9.40;8.50;;;;;;;16.67;100.00;101361.56;6079742;29;20768;-74
2023/09/28 05:46:42;;;;;;;9.13;7.33;;;;;;;16.65;100.00;101382.66;6079290;29;20233;-73
2023/09/28 05:50:05;;;;;;;9.77;8.73;;;;;;;16.43;100.00;101389.53;6079948;29;20225;-74
2023/09/28 05:53:28;;;;;;;9.77;8.88;;;;;;;16.55;100.00;101390.97;6079312;29;20260;-74
2023/09/28 05:56:49;;;;;;;10.10;9.00;;;;;;;16.59;100.00;101392.34;6077590;29;20232;-73
2023/09/28 06:00:13;;;;;;;8.70;7.83;;;;;;;16.56;100.00;101395.38;6076415;29;20311;-74
2023/09/28 06:03:35;;;;;;;8.73;7.83;;;;;;;16.60;100.00;101396.81;6073429;29;20260;-74
2023/09/28 06:06:57;;;;;;;9.10;8.13;;;;;;;16.63;100.00;101404.63;6077993;29;20240;-74
2023/09/28 06:10:19;;;;;;;8.57;7.78;;;;;;;16.79;100.00;101412.88;6081724;29;20236;-74
2023/09/28 06:13:41;;;;;;;9.77;8.75;;;;;;;16.81;100.00;101420.03;6084211;29;20694;-74
2023/09/28 06:17:02;;;;;;;12.00;7.93;;;;;;;16.97;100.00;101412.78;6084121;29;20233;-75
2023/09/28 06:20:23;;;;;;;8.40;7.53;;;;;;;17.09;100.00;101432.41;6086036;29;20240;-75
2023/09/28 06:23:44;;;;;;;9.13;8.27;;;;;;;17.31;100.00;101427.19;6075675;29;20236;-75
2023/09/28 06:27:06;;;;;;;10.05;8.30;;;;;;;17.54;100.00;101430.19;6086927;29;20248;-74
2023/09/28 06:30:27;;;;;;;9.27;7.80;;;;;;;17.61;100.00;101436.66;6086795;29;20237;-75
2023/09/28 06:33:48;;;;;;;10.38;8.93;;;;;;;17.48;100.00;101436.28;6078546;29;20611;-74
2023/09/28 06:37:09;;;;;;;8.52;7.63;;;;;;;17.38;100.00;101439.16;6085722;29;20646;-75
2023/09/28 06:40:30;;;;;;;9.40;8.37;;;;;;;17.23;100.00;101434.50;6086702;29;20757;-75
2023/09/28 06:43:52;;;;;;;10.20;7.25;;;;;;;17.28;100.00;101433.00;6085223;29;20232;-75
2023/09/28 06:47:13;;;;;;;9.15;8.23;;;;;;;17.49;100.00;101430.69;6084899;29;20228;-75
2023/09/28 06:50:35;;;;;;;9.40;8.40;;;;;;;17.60;100.00;101434.13;6084451;29;20233;-74
2023/09/28 06:53:56;;;;;;;11.10;7.88;;;;;;;17.67;100.00;101437.88;6082641;29;20256;-73
2023/09/28 06:57:17;;;;;;;13.50;9.05;;;;;;;17.66;100.00;101437.03;6083081;29;20229;-73
2023/09/28 07:00:40;;;;;;;8.10;7.30;;;;;;;17.89;100.00;101443.53;6074776;29;20232;-74
2023/09/28 07:04:01;;;;;;;10.55;8.07;;;;;;;18.02;100.00;101449.31;6075238;29;20654;-71
2023/09/28 07:07:22;;;;;;;13.57;7.47;;;;;;;17.90;100.00;101445.22;6079344;29;20236;-72
2023/09/28 07:10:44;;;;;;;11.40;7.78;;;;;;;17.84;100.00;101465.00;6086695;29;20232;-72
2023/09/28 07:14:06;;;;;;;12.18;7.07;;;;;;;18.05;100.00;101457.16;6084524;29;20233;-71
2023/09/28 07:17:28;;;;;;;7.10;6.50;;;;;;;18.35;100.00;101467.41;6078839;29;20259;-75
2023/09/28 07:20:49;;;;;;;8.73;7.90;;;;;;;18.34;99.59;101467.56;6084198;29;20314;-73
2023/09/28 07:24:10;;;;;;;10.07;7.93;;;;;;;18.21;99.29;101470.81;6080851;29;20507;-73
2023/09/28 07:27:32;;;;;;;8.98;8.07;;;;;;;18.44;98.97;101473.72;6088133;29;20240;-73
2023/09/28 07:30:53;;;;;;;9.35;6.97;;;;;;;18.26;98.87;101484.81;6083328;29;20697;-74
2023/09/28 07:34:15;;;;;;;10.10;8.57;;;;;;;18.27;98.58;101481.03;6086519;29;20232;-73
2023/09/28 07:37:36;;;;;;;13.57;7.75;;;;;;;18.18;99.33;101481.22;6092672;29;20289;-73
2023/09/28 07:40:57;;;;;;;9.77;7.10;;;;;;;18.24;99.43;101486.00;6085280;29;20921;-74
2023/09/28 07:44:19;;;;;;;8.95;7.07;;;;;;;18.43;99.10;101492.97;6088072;29;20225;-73
2023/09/28 07:47:40;;;;;;;8.57;7.65;;;;;;;18.55;98.46;101491.63;6094834;29;21829;-74
2023/09/28 07:51:03;;;;;;;11.90;8.07;;;;;;;18.84;97.56;101495.50;6090577;29;20236;-74
2023/09/28 07:54:24;;;;;;;10.82;7.07;;;;;;;18.67;97.28;101482.91;6083501;29;20237;-74
2023/09/28 07:57:46;;;;;;;9.70;7.88;;;;;;;18.72;96.85;101490.59;6075952;29;20514;-73
2023/09/28 08:01:09;;;;;;;10.25;8.25;;;;;;;18.93;96.34;101510.00;6085967;29;20236;-73
2023/09/28 08:04:30;;;;;;;14.23;8.27;;;;;;;18.69;96.60;101501.88;6087166;29;20512;-73
2023/09/28 08:07:52;;;;;;;10.85;7.25;;;;;;;18.89;96.31;101509.50;6087399;29;20233;-73
2023/09/28 08:11:14;;;;;;;8.70;7.75;;;;;;;19.39;95.39;101514.66;6088292;29;20236;-73
2023/09/28 08:14:35;;;;;;;9.40;7.22;;;;;;;19.56;94.28;101527.25;6083213;29;20746;-74
2023/09/28 08:17:57;;;;;;;9.52;7.07;;;;;;;19.60;93.08;101522.25;6091796;29;20225;-73
2023/09/28 08:21:18;;;;;;;8.35;7.30;;;;;;;19.90;92.58;101527.72;6084118;29;20344;-73
2023/09/28 08:24:40;;;;;;;10.48;7.57;;;;;;;20.00;91.20;101529.38;6083829;29;20232;-74
2023/09/28 08:28:01;;;;;;;10.07;7.88;;;;;;;20.06;91.09;101529.50;6085324;29;20232;-73
2023/09/28 08:31:22;;;;;;;7.40;6.30;;;;;;;20.26;89.74;101533.50;6083982;29;20232;-73
2023/09/28 08:34:43;;;;;;;7.32;6.63;;;;;;;20.57;88.59;101531.50;6088781;29;20623;-73
2023/09/28 08:38:05;;;;;;;7.97;7.20;;;;;;;20.47;87.63;101539.16;6084824;29;20236;-74
2023/09/28 08:41:36;;;;;;;6.40;4.85;;;;;;;20.76;86.51;101549.31;6064566;29;20241;-74
2023/09/28 08:45:02;;;;;;;5.78;4.97;;;;;;;20.72;85.26;101537.03;6079597;29;20327;-74
2023/09/28 08:48:27;;;;;;;5.97;4.72;;;;;;;20.68;84.29;101544.78;6078812;29;20319;-72
2023/09/28 08:51:50;;;;;;;5.82;4.13;;;;;;;20.88;83.31;101544.25;6073874;29;20240;-71
2023/09/28 08:55:12;;;;;;;5.80;4.25;;;;;;;20.98;82.70;101559.41;6081386;29;20291;-71
2023/09/28 08:58:36;;;;;;;4.60;4.20;;;;;;;21.20;82.01;101563.13;6082675;29;20240;-72
2023/09/28 09:02:00;;;;;;;4.78;4.25;;;;;;;21.25;81.45;101557.94;6087195;29;20244;-73
2023/09/28 09:05:21;;;;;;;6.72;4.40;;;;;;;21.36;81.02;101573.94;6085448;29;20241;-72
2023/09/28 09:08:48;;;;;;;4.85;4.22;;;;;;;21.21;81.40;101578.56;6082105;29;20241;-74
2023/09/28 09:12:10;;;;;;;4.38;4.00;;;;;;;20.96;81.64;101593.53;6085684;29;20252;-73
2023/09/28 09:15:36;;;;;;;7.10;4.38;;;;;;;21.16;81.94;101589.22;6085331;29;20224;-72
2023/09/28 09:18:57;;;;;;;4.70;3.70;;;;;;;21.31;81.42;101576.38;6087096;29;20617;-72
2023/09/28 09:22:26;;;;;;;5.63;4.20;;;;;;;21.48;80.77;101573.28;6086628;29;20235;-73
2023/09/28 09:25:48;;;;;;;4.57;4.15;;;;;;;21.85;79.84;101565.94;6085087;29;20248;-71
2023/09/28 09:29:09;;;;;;;5.60;4.05;;;;;;;21.95;79.30;101566.47;6089076;29;20228;-69
2023/09/28 09:32:31;;;;;;;7.03;4.88;;;;;;;21.86;78.67;101575.91;6090819;29;20662;-69
2023/09/28 09:35:52;;;;;;;5.03;4.47;;;;;;;21.91;78.38;101567.91;6086342;29;20224;-68
2023/09/28 09:39:22;;;;;;;5.68;4.10;;;;;;;22.08;78.40;101580.38;6089976;29;20247;-71
2023/09/28 09:42:43;;;;;;;6.88;6.13;;;;;;;22.57;77.22;101567.56;6087553;29;20247;-71
2023/09/28 09:46:05;;;;;;;7.25;4.53;;;;;;;22.40;76.46;101562.56;6088769;29;20260;-72
2023/09/28 09:49:28;;;;;;;5.68;4.50;;;;;;;22.21;77.39;101569.56;6099969;29;20248;-73
2023/09/28 09:52:49;;;;;;;5.88;4.63;;;;;;;22.78;75.82;101572.25;6098438;29;20254;-72
2023/09/28 09:56:11;;;;;;;6.85;4.40;;;;;;;22.99;74.64;101573.06;6090851;29;20233;-71
2023/09/28 09:59:34;;;;;;;5.80;4.68;;;;;;;22.52;75.15;101591.22;6090552;29;20232;-70
2023/09/28 10:02:56;;;;;;;4.57;3.50;;;;;;;23.15;74.97;101576.56;6084045;29;20236;-70
2023/09/28 10:06:19;;;;;;;3.05;2.53;;;;;;;22.96;72.25;101570.72;6088358;29;20237;-70
2023/09/28 10:09:41;;;;;;;4.20;3.80;;;;;;;23.73;70.48;101571.44;6091055;29;20237;-70
2023/09/28 10:13:02;;;;;;;8.90;4.32;;;;;;;24.07;67.74;101570.53;6095255;29;20661;-70
2023/09/28 10:16:23;;;;;;;4.65;4.00;;;;;;;24.99;63.76;101568.75;6088716;29;20502;-70
2023/09/28 10:19:44;;;;;;;4.68;3.78;;;;;;;27.41;57.52;101566.63;6091470;29;20233;-70
2023/09/28 10:23:26;;;;;;;5.47;3.40;;;;;;;29.56;51.78;101567.22;6098188;29;20339;-71
2023/09/28 10:26:49;;;;;;;6.13;3.80;;;;;;;30.83;48.17;101558.38;6092932;29;20316;-70
2023/09/28 10:30:17;;;;;;;4.45;3.40;;;;;;;30.24;48.31;101579.25;6092182;29;20237;-70
2023/09/28 10:33:59;;;;;;;3.33;2.95;;;;;;;31.51;46.46;101589.63;6091481;29;20232;-70
2023/09/28 10:37:21;;;;;;;5.63;2.92;;;;;;;31.54;43.74;101591.06;6091743;29;20607;-71
2023/09/28 10:40:44;;;;;;;4.18;3.08;;;;;;;29.92;46.82;101587.22;6088587;29;20225;-70
2023/09/28 10:44:16;;;;;;;3.38;2.65;;;;;;;30.64;46.33;101585.63;6096146;29;20655;-70
2023/09/28 10:47:37;;;;;;;4.88;2.85;;;;;;;31.34;44.71;101588.75;6091200;29;20236;-70
2023/09/28 10:50:58;;;;;;;3.83;2.90;;;;;;;32.48;42.95;101588.94;6096613;29;20540;-70
2023/09/28 10:54:19;;;;;;;3.40;3.10;;;;;;;34.03;40.69;101591.22;6093692;29;20237;-70
2023/09/28 10:57:41;;;;;;;4.25;2.72;;;;;;;33.93;39.93;101599.56;6089926;29;20240;-70
2023/09/28 11:01:06;;;;;;;2.72;2.15;;;;;;;34.72;39.38;101589.75;6083109;29;20241;-70
2023/09/28 11:04:28;;;;;;;4.40;2.40;;;;;;;35.84;37.49;101594.16;6080545;29;20233;-71
2023/09/28 11:07:51;;;;;;;3.70;3.00;;;;;;;35.00;38.75;101588.41;6086729;29;20233;-70
2023/09/28 11:11:12;;;;;;;3.63;2.80;;;;;;;34.53;39.14;101574.59;6087182;29;20513;-70
2023/09/28 11:14:36;;;;;;;4.30;2.53;;;;;;;30.17;45.69;101586.91;6087218;29;20232;-70
2023/09/28 11:17:57;;;;;;;5.53;3.20;;;;;;;31.31;45.07;101572.53;6086436;29;20260;-71
2023/09/28 11:21:18;;;;;;;3.85;2.88;;;;;;;30.78;45.11;101595.34;6095675;29;20237;-71
2023/09/28 11:24:40;;;;;;;2.90;2.70;;;;;;;30.86;43.98;101579.31;6086120;29;20237;-71
2023/09/28 11:28:00;;;;;;;6.15;3.20;;;;;;;30.16;46.13;101581.59;6085763;29;20295;-70
2023/09/28 11:31:23;;;;;;;3.67;2.95;;;;;;;31.21;44.46;101574.34;6085790;29;20233;-70
2023/09/28 11:34:43;;;;;;;3.42;3.05;;;;;;;31.32;44.13;101582.59;6057094;29;20240;-70
2023/09/28 11:38:09;;;;;;;3.95;3.63;;;;;;;28.21;49.42;101582.91;6085650;29;20233;-71
2023/09/28 11:41:31;;;;;;;3.53;3.20;;;;;;;27.56;52.04;101590.09;6091082;29;20339;-71
2023/09/28 11:44:52;;;;;;;3.63;3.00;;;;;;;27.76;51.93;101606.50;6078166;29;20236;-70
2023/09/28 11:48:18;;;;;;;4.38;3.38;;;;;;;27.78;52.96;101611.81;6090150;29;20236;-70
2023/09/28 11:51:40;;;;;;;7.95;3.88;;;;;;;26.77;55.09;101592.75;6092865;29;20324;-70
2023/09/28 11:55:01;;;;;;;6.07;2.72;;;;;;;25.89;58.37;101603.81;6090532;29;20248;-70
2023/09/28 11:58:22;;;;;;;4.78;3.20;;;;;;;26.66;57.24;101610.03;6088677;29;20232;-69
2023/09/28 12:01:43;;;;;;;4.72;2.88;;;;;;;25.20;59.11;101617.38;6093373;29;20573;-70
2023/09/28 12:05:07;;;;;;;3.78;3.38;;;;;;;28.47;52.09;101613.03;6073559;29;20248;-70
2023/09/28 12:08:29;;;;;;;4.45;2.67;;;;;;;25.42;56.92;101612.47;6087956;29;20236;-70
2023/09/28 12:11:52;;;;;;;4.28;3.22;;;;;;;24.92;60.03;101612.06;6086277;29;20320;-71
2023/09/28 12:15:14;;;;;;;5.00;2.35;;;;;;;23.92;61.94;101615.78;6078645;29;20235;-71
2023/09/28 12:18:35;;;;;;;5.00;3.00;;;;;;;26.67;56.65;101592.38;6088362;29;20240;-71
2023/09/28 12:21:58;;;;;;;3.70;2.90;;;;;;;25.58;56.58;101592.66;6082856;29;20228;-71
2023/09/28 12:25:19;;;;;;;4.15;3.00;;;;;;;27.65;53.90;101591.50;6088238;29;20232;-71
2023/09/28 12:28:41;;;;;;;3.20;2.90;;;;;;;30.48;46.79;101593.94;6084628;29;20229;-71
2023/09/28 12:32:03;;;;;;;3.42;2.88;;;;;;;26.20;52.58;101603.94;6085782;29;20266;-72
2023/09/28 12:35:24;;;;;;;2.40;2.17;;;;;;;26.52;54.42;101597.38;6085299;29;20256;-71
2023/09/28 12:38:50;;;;;;;7.10;3.17;;;;;;;29.66;49.15;101598.88;6082800;29;20569;-71
2023/09/28 12:42:15;;;;;;;6.18;2.97;;;;;;;28.66;49.30;101605.56;6082804;29;20240;-72
2023/09/28 12:45:36;;;;;;;3.88;3.47;;;;;;;27.39;51.18;101605.63;6080086;29;20342;-72
2023/09/28 12:48:57;;;;;;;3.88;3.03;;;;;;;29.45;49.23;101602.28;6076573;29;20224;-71
2023/09/28 12:52:18;;;;;;;7.35;2.63;;;;;;;28.46;49.32;101613.28;6079648;29;20231;-71
2023/09/28 12:55:40;;;;;;;4.10;2.55;;;;;;;27.40;52.40;101601.78;6079382;29;20228;-71
2023/09/28 12:59:01;;;;;;;4.10;2.90;;;;;;;26.92;52.84;101597.94;6085997;29;20275;-71
2023/09/28 13:02:24;;;;;;;7.30;3.35;;;;;;;26.41;55.62;101594.47;6075930;29;20240;-70
2023/09/28 13:05:45;;;;;;;2.75;2.55;;;;;;;26.75;54.82;101589.34;6076409;29;20232;-70
2023/09/28 13:09:07;;;;;;;7.07;3.38;;;;;;;27.93;52.54;101588.19;6073879;29;20232;-70
2023/09/28 13:12:30;;;;;;;5.85;3.22;;;;;;;25.78;56.42;101597.09;6081521;29;20264;-70
2023/09/28 13:15:51;;;;;;;3.78;3.20;;;;;;;25.55;56.99;101605.03;6081136;29;20426;-70
2023/09/28 13:19:16;;;;;;;4.05;2.72;;;;;;;26.24;56.27;101610.75;6084381;29;20228;-70
2023/09/28 13:22:37;;;;;;;5.78;2.75;;;;;;;24.43;58.97;101625.31;6083705;29;20742;-71
2023/09/28 13:25:58;;;;;;;5.85;2.55;;;;;;;26.19;56.03;101605.00;6083492;29;20233;-70
2023/09/28 13:29:20;;;;;;;6.25;3.15;;;;;;;26.25;54.85;101593.06;6075543;29;20225;-70
2023/09/28 13:32:41;;;;;;;6.05;3.25;;;;;;;24.56;60.05;101609.66;6087093;29;20241;-70
2023/09/28 13:36:05;;;;;;;7.65;3.50;;;;;;;25.36;59.71;101616.91;6084180;29;20244;-69
2023/09/28 13:39:30;;;;;;;4.70;2.67;;;;;;;26.13;56.38;101603.13;6086951;29;20347;-70
2023/09/28 13:42:53;;;;;;;5.28;3.05;;;;;;;25.36;58.09;101590.16;6081873;29;20224;-70
2023/09/28 13:46:17;;;;;;;4.30;2.88;;;;;;;25.82;57.37;101597.50;6081304;29;20240;-71
2023/09/28 13:49:39;;;;;;;4.35;3.30;;;;;;;27.31;53.60;101594.81;6087855;29;20316;-69
2023/09/28 13:53:01;;;;;;;3.33;3.00;;;;;;;25.65;56.61;101605.41;6083843;29;20236;-70
2023/09/28 13:56:23;;;;;;;3.40;2.90;;;;;;;26.19;55.39;101609.69;6084254;29;20291;-70
2023/09/28 13:59:44;;;;;;;4.82;2.67;;;;;;;25.55;57.51;101605.03;6082120;29;20229;-70
2023/09/28 14:03:06;;;;;;;4.40;2.42;;;;;;;26.60;55.34;101613.69;6086584;29;20611;-71
2023/09/28 14:06:28;;;;;;;4.18;2.80;;;;;;;25.01;58.94;101615.47;6090262;29;20233;-71
2023/09/28 14:09:49;;;;;;;6.78;2.78;;;;;;;27.27;55.03;101598.25;6073210;29;20229;-70
2023/09/28 14:13:10;;;;;;;3.67;2.38;;;;;;;28.45;51.51;101595.78;6086236;29;20240;-70
2023/09/28 14:16:32;;;;;;;6.45;2.70;;;;;;;28.18;51.73;101597.22;6081126;29;20236;-70
2023/09/28 14:19:54;;;;;;;3.53;2.55;;;;;;;26.19;54.44;101596.72;6073906;29;20260;-70
2023/09/28 14:23:15;;;;;;;3.10;2.67;;;;;;;25.46;57.60;101595.25;6052541;29;20236;-70
2023/09/28 14:26:36;;;;;;;4.13;3.38;;;;;;;26.36;55.44;101589.59;6065235;29;20232;-70
2023/09/28 14:29:58;;;;;;;3.97;2.90;;;;;;;26.47;55.35;101591.63;6065844;29;20233;-70
2023/09/28 14:33:19;;;;;;;7.40;3.05;;;;;;;26.23;55.61;101583.28;6084473;29;20237;-69
2023/09/28 14:36:41;;;;;;;4.18;2.88;;;;;;;25.48;58.40;101578.47;6078907;29;20236;-69
2023/09/28 14:40:03;;;;;;;4.13;3.00;;;;;;;25.75;57.26;101580.09;6084636;29;20604;-69
2023/09/28 14:43:23;;;;;;;11.68;3.67;;;;;;;24.46;61.01;101581.66;6085627;29;20662;-69
2023/09/28 14:46:44;;;;;;;5.40;2.88;;;;;;;24.57;61.87;101597.56;6081491;29;20523;-69
2023/09/28 14:50:07;;;;;;;4.03;2.83;;;;;;;24.90;60.74;101594.03;6087484;29;20256;-69
2023/09/28 14:53:29;;;;;;;4.03;2.65;;;;;;;24.87;60.58;101594.44;6073576;29;20597;-69
2023/09/28 14:56:50;;;;;;;5.95;2.92;;;;;;;25.02;60.69;101600.59;6083653;29;20236;-69
2023/09/28 15:00:12;;;;;;;8.20;3.60;;;;;;;24.92;60.63;101598.28;6081285;29;20319;-69
2023/09/28 15:03:33;;;;;;;4.47;3.50;;;;;;;24.72;61.02;101602.88;6080847;29;20323;-69
2023/09/28 15:06:54;;;;;;;4.53;2.75;;;;;;;24.25;62.04;101601.09;6086785;29;20233;-69
2023/09/28 15:10:16;;;;;;;5.22;2.55;;;;;;;24.03;63.41;101602.25;6085871;29;20252;-68
2023/09/28 15:13:38;;;;;;;6.57;2.97;;;;;;;23.77;64.31;101602.16;6083365;29;20233;-69
2023/09/28 15:16:58;;;;;;;4.00;3.15;;;;;;;23.54;65.04;101612.63;6081845;29;20237;-69
2023/09/28 15:20:19;;;;;;;5.35;4.25;;;;;;;23.80;64.67;101610.84;6080139;29;20315;-69
2023/09/28 15:23:41;;;;;;;3.55;3.05;;;;;;;23.89;64.98;101600.50;6077546;29;20546;-68
2023/09/28 15:27:03;;;;;;;7.35;2.63;;;;;;;23.43;65.35;101604.91;6079298;29;20335;-69
2023/09/28 15:30:24;;;;;;;5.43;2.83;;;;;;;23.81;64.89;101607.06;6073351;29;20264;-68
2023/09/28 15:33:46;;;;;;;3.53;2.60;;;;;;;23.99;64.86;101617.50;6088394;29;20232;-69
2023/09/28 15:37:08;;;;;;;6.65;3.03;;;;;;;23.94;64.08;101613.69;6080535;29;20575;-69